createdAt,value
2022-07-28T00:00:45.641Z,17.55
2022-07-28T00:05:49.892Z,17.47
2022-07-28T00:10:53.823Z,17.38
2022-07-28T00:15:57.398Z,17.28
2022-07-28T00:21:02.170Z,17.19
2022-07-28T00:26:06.009Z,17.10
2022-07-28T00:31:12.527Z,17.07
2022-07-28T00:36:18.033Z,17.02
2022-07-28T00:41:22.750Z,16.87
2022-07-28T00:46:26.446Z,16.74
2022-07-28T00:51:31.823Z,16.68
2022-07-28T00:56:35.700Z,16.64
2022-07-28T01:01:41.078Z,16.60
2022-07-28T01:06:55.112Z,16.57
2022-07-28T01:12:09.018Z,16.57
2022-07-28T01:17:26.916Z,16.56
2022-07-28T01:22:35.100Z,16.50
2022-07-28T01:27:54.792Z,16.45
2022-07-28T01:33:01.591Z,16.43
2022-07-28T01:38:08.111Z,16.44
2022-07-28T01:43:13.481Z,16.44
2022-07-28T01:48:20.069Z,16.47
2022-07-28T01:53:25.693Z,16.49
2022-07-28T01:58:30.658Z,16.56
2022-07-28T02:03:35.418Z,16.66
2022-07-28T02:08:41.064Z,16.74
2022-07-28T02:13:47.011Z,16.77
2022-07-28T02:18:52.371Z,16.75
2022-07-28T02:23:58.393Z,16.76
2022-07-28T02:29:05.451Z,16.77
2022-07-28T02:34:11.230Z,16.77
2022-07-28T02:39:17.985Z,16.76
2022-07-28T02:44:28.274Z,16.78
2022-07-28T02:49:33.624Z,16.78
2022-07-28T02:54:39.846Z,16.76
2022-07-28T02:59:44.232Z,16.67
2022-07-28T03:04:58.141Z,16.60
2022-07-28T03:10:02.941Z,16.58
2022-07-28T03:15:09.706Z,16.53
2022-07-28T03:20:14.902Z,16.47
2022-07-28T03:25:23.553Z,16.42
2022-07-28T03:30:32.174Z,16.40
2022-07-28T03:35:39.734Z,16.38
2022-07-28T03:40:46.451Z,16.39
2022-07-28T03:45:51.554Z,16.37
2022-07-28T03:50:55.714Z,16.31
2022-07-28T03:55:59.330Z,16.22
2022-07-28T04:01:02.988Z,16.13
2022-07-28T04:06:06.710Z,16.09
2022-07-28T04:11:11.153Z,16.06
2022-07-28T04:16:14.829Z,15.99
2022-07-28T04:21:19.152Z,15.99
2022-07-28T04:26:22.880Z,16.00
2022-07-28T04:31:26.672Z,15.98
2022-07-28T04:36:30.555Z,15.95
2022-07-28T04:41:35.057Z,15.93
2022-07-28T04:46:39.135Z,15.90
2022-07-28T04:51:48.057Z,15.88
2022-07-28T04:56:52.521Z,15.88
2022-07-28T05:01:56.947Z,15.89
2022-07-28T05:07:00.863Z,15.94
2022-07-28T05:12:12.039Z,15.94
2022-07-28T05:17:16.135Z,15.99
2022-07-28T05:22:22.006Z,16.00
2022-07-28T05:27:26.073Z,16.06
2022-07-28T05:32:30.055Z,16.02
2022-07-28T05:37:34.822Z,15.92
2022-07-28T05:42:39.748Z,15.97
2022-07-28T05:47:45.848Z,16.01
2022-07-28T05:52:50.742Z,16.03
2022-07-28T05:57:54.514Z,16.07
2022-07-28T06:03:01.497Z,16.14
2022-07-28T06:08:05.602Z,16.27
2022-07-28T06:13:14.354Z,16.35
2022-07-28T06:18:18.312Z,16.35
2022-07-28T06:23:23.352Z,16.35
2022-07-28T06:28:27.075Z,16.37
2022-07-28T06:33:30.634Z,16.46
2022-07-28T06:38:34.488Z,16.48
2022-07-28T06:43:39.258Z,16.54
2022-07-28T06:48:46.085Z,16.62
2022-07-28T06:53:49.875Z,16.76
2022-07-28T06:58:53.663Z,16.91
2022-07-28T07:03:57.203Z,17.11
2022-07-28T07:09:01.456Z,17.30
2022-07-28T07:14:05.114Z,17.53
2022-07-28T07:19:15.462Z,17.77
2022-07-28T07:24:20.032Z,17.97
2022-07-28T07:29:26.356Z,18.11
2022-07-28T07:34:34.222Z,18.25
2022-07-28T07:39:38.214Z,18.31
2022-07-28T07:44:42.073Z,18.31
2022-07-28T07:49:54.360Z,18.37
2022-07-28T07:54:57.756Z,18.49
2022-07-28T08:00:01.630Z,18.63
2022-07-28T08:05:06.747Z,18.77
2022-07-28T08:10:12.583Z,18.93
2022-07-28T08:15:25.204Z,19.12
2022-07-28T08:20:29.135Z,19.32
2022-07-28T08:25:35.892Z,19.63
2022-07-28T08:30:40.564Z,19.80
2022-07-28T08:35:44.328Z,19.94
2022-07-28T08:40:51.870Z,20.13
2022-07-28T08:45:58.705Z,20.37
2022-07-28T08:51:05.094Z,20.59
2022-07-28T08:56:12.356Z,20.84
2022-07-28T09:01:16.549Z,21.11
2022-07-28T09:06:22.671Z,21.35
2022-07-28T09:11:29.055Z,21.53
2022-07-28T09:16:32.948Z,21.68
2022-07-28T09:21:37.176Z,21.79
2022-07-28T09:27:01.026Z,21.97
2022-07-28T09:32:06.529Z,22.11
2022-07-28T09:37:23.311Z,22.15
2022-07-28T09:42:47.037Z,22.20
2022-07-28T09:48:08.043Z,22.28
2022-07-28T09:53:32.376Z,22.32
2022-07-28T09:58:36.909Z,22.37
2022-07-28T10:03:48.624Z,22.35
2022-07-28T10:08:53.292Z,22.21
2022-07-28T10:14:00.292Z,22.08
2022-07-28T10:19:05.631Z,22.00
2022-07-28T10:24:14.285Z,21.95
2022-07-28T10:29:20.839Z,21.96
2022-07-28T10:34:30.986Z,22.06
2022-07-28T10:39:41.568Z,22.14
2022-07-28T10:44:46.503Z,22.14
2022-07-28T10:49:50.371Z,22.19
2022-07-28T10:55:00.384Z,22.26
2022-07-28T11:00:24.507Z,22.37
2022-07-28T11:05:35.920Z,22.49
2022-07-28T11:10:51.610Z,22.60
2022-07-28T11:15:56.319Z,22.67
2022-07-28T11:21:09.870Z,22.74
2022-07-28T11:26:38.096Z,22.82
2022-07-28T11:32:13.248Z,22.94
2022-07-28T11:37:17.065Z,23.06
2022-07-28T11:42:28.905Z,23.12
2022-07-28T11:47:32.483Z,23.16
2022-07-28T11:52:37.301Z,23.18
2022-07-28T11:57:43.820Z,23.23
2022-07-28T12:02:47.611Z,23.32
2022-07-28T12:07:52.423Z,23.41
2022-07-28T12:12:57.686Z,23.44
2022-07-28T12:18:01.882Z,23.42
2022-07-28T12:23:09.847Z,23.47
2022-07-28T12:28:19.128Z,23.50
2022-07-28T12:33:29.349Z,23.47
2022-07-28T12:38:34.232Z,23.52
2022-07-28T12:43:37.795Z,23.61
2022-07-28T12:48:41.846Z,23.59
2022-07-28T12:53:52.332Z,23.50
2022-07-28T12:59:07.708Z,23.56
2022-07-28T13:04:12.105Z,23.65
2022-07-28T13:09:23.522Z,23.76
2022-07-28T13:14:44.305Z,23.83
2022-07-28T13:19:48.483Z,23.90
2022-07-28T13:24:52.417Z,23.84
2022-07-28T13:29:55.497Z,23.79
2022-07-28T13:34:59.112Z,23.72
2022-07-28T13:40:02.742Z,23.78
2022-07-28T13:45:08.200Z,23.90
2022-07-28T13:50:14.106Z,23.97
2022-07-28T13:55:22.652Z,24.01
2022-07-28T14:00:27.114Z,23.95
2022-07-28T14:05:31.948Z,23.83
2022-07-28T14:10:36.240Z,23.72
2022-07-28T14:15:40.770Z,23.67
2022-07-28T14:20:44.458Z,23.76
2022-07-28T14:25:49.556Z,23.88
2022-07-28T14:30:54.130Z,23.98
2022-07-28T14:35:58.297Z,24.03
2022-07-28T14:41:02.104Z,24.01
2022-07-28T14:46:15.105Z,24.00
2022-07-28T14:51:20.678Z,24.01
2022-07-28T14:56:24.942Z,23.93
2022-07-28T15:01:28.765Z,23.90
2022-07-28T15:06:41.103Z,23.91
2022-07-28T15:11:46.789Z,23.87
2022-07-28T15:16:51.209Z,23.87
2022-07-28T15:21:54.908Z,23.88
2022-07-28T15:26:59.635Z,23.91
2022-07-28T15:32:04.303Z,23.94
2022-07-28T15:37:08.283Z,23.98
2022-07-28T15:42:13.478Z,24.00
2022-07-28T15:47:17.564Z,24.02
2022-07-28T15:52:21.275Z,24.07
2022-07-28T15:57:25.334Z,24.11
2022-07-28T16:02:41.548Z,24.06
2022-07-28T16:07:45.464Z,24.02
2022-07-28T16:12:49.594Z,23.95
2022-07-28T16:17:53.578Z,23.92
2022-07-28T16:24:02.741Z,23.90
2022-07-28T16:29:06.452Z,23.86
2022-07-28T16:34:10.990Z,23.85
2022-07-28T16:39:14.811Z,23.83
2022-07-28T16:44:19.096Z,23.79
2022-07-28T16:49:23.572Z,23.77
2022-07-28T16:54:27.215Z,23.72
2022-07-28T16:59:36.995Z,23.68
2022-07-28T17:04:49.408Z,23.64
2022-07-28T17:09:53.103Z,23.62
2022-07-28T17:14:56.494Z,23.57
2022-07-28T17:20:00.758Z,23.52
2022-07-28T17:25:17.207Z,23.45
2022-07-28T17:30:32.348Z,23.40
2022-07-28T17:35:36.475Z,23.34
2022-07-28T17:40:42.444Z,23.26
2022-07-28T17:45:46.371Z,23.21
2022-07-28T17:50:51.114Z,23.14
2022-07-28T17:56:01.044Z,23.06
2022-07-28T18:01:12.048Z,22.95
2022-07-28T18:06:19.139Z,22.84
2022-07-28T18:11:24.225Z,22.73
2022-07-28T18:16:27.841Z,22.62
2022-07-28T18:21:31.754Z,22.52
2022-07-28T18:26:41.922Z,22.41
2022-07-28T18:31:46.958Z,22.31
2022-07-28T18:36:50.827Z,22.21
2022-07-28T18:41:56.472Z,22.12
2022-07-28T18:47:02.551Z,22.04
2022-07-28T18:52:07.382Z,21.95
2022-07-28T18:57:11.372Z,21.86
2022-07-28T19:02:15.848Z,21.76
2022-07-28T19:07:24.481Z,21.67
2022-07-28T19:12:30.756Z,21.58
2022-07-28T19:17:34.606Z,21.50
2022-07-28T19:22:38.706Z,21.41
2022-07-28T19:27:44.585Z,21.33
2022-07-28T19:32:47.516Z,21.23
2022-07-28T19:37:51.351Z,21.10
2022-07-28T19:42:56.370Z,20.97
2022-07-28T19:48:03.237Z,20.88
2022-07-28T19:53:06.839Z,20.77
2022-07-28T19:58:18.470Z,20.65
2022-07-28T20:04:02.430Z,20.53
2022-07-28T20:08:45.671Z,20.41
2022-07-28T20:13:49.619Z,20.30
2022-07-28T20:18:53.879Z,20.16
2022-07-28T20:23:58.095Z,20.07
2022-07-28T20:29:01.715Z,20.00
2022-07-28T20:34:06.380Z,19.88
2022-07-28T20:39:34.484Z,19.73
2022-07-28T20:44:34.824Z,19.60
2022-07-28T20:49:39.146Z,19.58
2022-07-28T20:54:42.780Z,19.59
2022-07-28T20:59:48.312Z,19.58
2022-07-28T21:04:52.513Z,19.57
2022-07-28T21:09:56.308Z,19.51
2022-07-28T21:15:00.386Z,19.40
2022-07-28T21:20:05.206Z,19.25
2022-07-28T21:25:09.952Z,19.05
2022-07-28T21:30:14.792Z,18.85
2022-07-28T21:35:18.662Z,18.70
2022-07-28T21:40:22.914Z,18.56
2022-07-28T21:45:26.821Z,18.41
2022-07-28T21:50:30.547Z,18.28
2022-07-28T21:55:34.721Z,18.23
2022-07-28T22:00:38.608Z,18.31
2022-07-28T22:05:43.044Z,18.40
2022-07-28T22:10:46.736Z,18.47
2022-07-28T22:15:50.382Z,18.52
2022-07-28T22:20:54.037Z,18.54
2022-07-28T22:25:57.699Z,18.56
2022-07-28T22:31:09.284Z,18.55
2022-07-28T22:36:13.851Z,18.51
2022-07-28T22:41:17.722Z,18.45
2022-07-28T22:46:21.429Z,18.42
2022-07-28T22:51:25.104Z,18.36
2022-07-28T22:56:37.182Z,18.27
2022-07-28T23:01:41.469Z,18.22
2022-07-28T23:06:45.664Z,18.17
2022-07-28T23:11:55.492Z,18.16
2022-07-28T23:17:00.147Z,18.15
2022-07-28T23:22:04.665Z,18.13
2022-07-28T23:27:08.246Z,18.10
2022-07-28T23:32:16.877Z,18.01
2022-07-28T23:37:20.862Z,17.95
2022-07-28T23:42:24.525Z,17.85
2022-07-28T23:47:28.076Z,17.77
2022-07-28T23:52:32.089Z,17.69
2022-07-28T23:57:35.905Z,17.64
